Time;durP1;ratioP1;P1;durP2;ratioP2;P2;SDS_P1;SDS_P2;PMS_P1;PMS_P2;Temp;Humidity;BMP_temperature;BMP_pressure;BME280_temperature;BME280_humidity;BME280_pressure;Samples;Min_cycle;Max_cycle;Signal;HPM_P1;HPM_P2
2023/08/07 00:01:25;;;;;;;15.35;14.27;;;;;;;;;;5057025;28;20082;-91
2023/08/07 00:03:51;;;;;;;17.75;16.63;;;;;;;;;;5057328;28;20020;-93
2023/08/07 00:06:17;;;;;;;14.77;13.98;;;;;;;;;;5077367;28;20090;-92
2023/08/07 00:08:44;;;;;;;15.82;14.95;;;;;;;;;;5077759;28;20061;-92
2023/08/07 00:11:10;;;;;;;15.18;14.10;;;;;;;;;;5077924;28;20024;-90
2023/08/07 00:13:37;;;;;;;15.65;14.75;;;;;;;;;;5077134;28;20480;-91
2023/08/07 00:16:03;;;;;;;15.48;14.57;;;;;;;;;;5077196;28;20062;-91
2023/08/07 00:18:29;;;;;;;15.45;14.50;;;;;;;;;;5076956;28;20033;-91
2023/08/07 00:20:56;;;;;;;14.77;13.82;;;;;;;;;;5076777;28;20115;-92
2023/08/07 00:23:22;;;;;;;14.60;13.80;;;;;;;;;;5077084;28;20028;-92
2023/08/07 00:25:48;;;;;;;15.60;14.80;;;;;;;;;;5077470;28;20039;-91
2023/08/07 00:28:14;;;;;;;15.82;14.77;;;;;;;;;;5093176;28;20049;-92
2023/08/07 00:30:41;;;;;;;19.60;18.55;;;;;;;;;;5089811;28;20013;-92
2023/08/07 00:33:07;;;;;;;20.42;19.25;;;;;;;;;;5067888;28;20029;-92
2023/08/07 00:35:33;;;;;;;16.15;15.25;;;;;;;;;;5062396;28;20024;-92
2023/08/07 00:38:00;;;;;;;17.50;16.50;;;;;;;;;;5074764;28;20086;-92
2023/08/07 00:40:26;;;;;;;18.15;17.20;;;;;;;;;;5056883;28;20116;-93
2023/08/07 00:42:53;;;;;;;15.20;14.32;;;;;;;;;;5056661;28;20469;-93
2023/08/07 00:45:21;;;;;;;18.10;17.10;;;;;;;;;;5056603;28;20074;-91
2023/08/07 00:47:47;;;;;;;18.15;17.15;;;;;;;;;;5074578;28;20044;-93
2023/08/07 00:50:13;;;;;;;19.77;18.67;;;;;;;;;;5076805;28;20024;-92
2023/08/07 00:52:39;;;;;;;17.08;16.17;;;;;;;;;;5076457;28;20058;-90
2023/08/07 00:55:05;;;;;;;16.33;15.43;;;;;;;;;;5065335;28;20143;-92
2023/08/07 00:57:32;;;;;;;19.15;18.00;;;;;;;;;;5060271;28;20048;-92
2023/08/07 00:59:58;;;;;;;17.83;16.83;;;;;;;;;;5076604;28;20040;-92
2023/08/07 01:02:25;;;;;;;19.75;18.65;;;;;;;;;;5063337;28;20489;-92
2023/08/07 01:04:51;;;;;;;19.90;18.80;;;;;;;;;;5056286;28;20031;-90
2023/08/07 01:07:17;;;;;;;17.15;16.23;;;;;;;;;;5056268;28;20496;-92
2023/08/07 01:09:43;;;;;;;19.00;18.00;;;;;;;;;;5056149;28;20017;-92
2023/08/07 01:12:09;;;;;;;19.52;18.42;;;;;;;;;;5056595;28;20029;-92
2023/08/07 01:14:43;;;;;;;17.80;16.70;;;;;;;;;;5056209;28;20385;-92
2023/08/07 01:17:11;;;;;;;21.50;20.25;;;;;;;;;;5074082;28;20074;-92
2023/08/07 01:19:37;;;;;;;20.33;19.23;;;;;;;;;;5076673;28;20121;-91
2023/08/07 01:22:13;;;;;;;18.98;17.95;;;;;;;;;;5076717;28;20032;-91
2023/08/07 01:24:43;;;;;;;16.55;15.65;;;;;;;;;;5076441;28;20122;-90
2023/08/07 01:27:19;;;;;;;17.65;16.55;;;;;;;;;;5076554;28;20035;-93
2023/08/07 01:29:45;;;;;;;19.20;18.00;;;;;;;;;;5076808;28;20540;-92
2023/08/07 01:32:14;;;;;;;25.98;24.42;;;;;;;;;;5076939;28;20377;-93
2023/08/07 01:34:41;;;;;;;18.92;17.83;;;;;;;;;;5076114;28;20361;-92
2023/08/07 01:37:11;;;;;;;16.40;15.38;;;;;;;;;;5064855;28;20032;-92
2023/08/07 01:39:37;;;;;;;17.08;16.17;;;;;;;;;;5063764;28;20139;-91
2023/08/07 01:42:14;;;;;;;15.05;14.15;;;;;;;;;;5084396;28;20068;-92
2023/08/07 01:44:43;;;;;;;17.55;16.60;;;;;;;;;;5076760;28;20469;-92
2023/08/07 01:47:10;;;;;;;17.00;15.93;;;;;;;;;;5072378;28;20044;-91
2023/08/07 01:49:38;;;;;;;15.88;14.45;;;;;;;;;;5072866;28;20489;-92
2023/08/07 01:52:04;;;;;;;17.90;16.90;;;;;;;;;;5060953;28;20032;-92
2023/08/07 01:54:30;;;;;;;16.65;15.60;;;;;;;;;;5052408;28;20029;-90
2023/08/07 01:56:56;;;;;;;17.83;16.83;;;;;;;;;;5052922;28;20029;-92
2023/08/07 01:59:23;;;;;;;17.70;16.60;;;;;;;;;;5052364;28;20025;-91
2023/08/07 02:01:49;;;;;;;19.13;18.02;;;;;;;;;;5053030;28;20029;-92
2023/08/07 02:04:15;;;;;;;18.13;17.02;;;;;;;;;;5052841;28;20029;-93
2023/08/07 02:06:41;;;;;;;14.80;13.88;;;;;;;;;;5062713;28;20036;-91
2023/08/07 02:09:07;;;;;;;16.80;15.82;;;;;;;;;;5076196;28;20094;-92
2023/08/07 02:11:34;;;;;;;17.02;15.88;;;;;;;;;;5076317;28;20032;-91
2023/08/07 02:14:00;;;;;;;17.70;16.70;;;;;;;;;;5075824;28;20056;-92
2023/08/07 02:16:26;;;;;;;16.83;15.82;;;;;;;;;;5075960;28;20078;-92
2023/08/07 02:18:52;;;;;;;18.50;17.42;;;;;;;;;;5075855;28;20021;-91
2023/08/07 02:21:18;;;;;;;18.73;17.70;;;;;;;;;;5066525;28;20496;-92
2023/08/07 02:23:44;;;;;;;42.45;40.17;;;;;;;;;;5056030;28;20052;-92
2023/08/07 02:26:10;;;;;;;47.30;44.70;;;;;;;;;;5055879;28;20094;-92
2023/08/07 02:28:36;;;;;;;50.72;47.97;;;;;;;;;;5055645;28;20025;-92
2023/08/07 02:31:03;;;;;;;57.42;54.25;;;;;;;;;;5055972;28;20035;-92
2023/08/07 02:33:32;;;;;;;57.67;54.53;;;;;;;;;;5055672;28;20071;-92
2023/08/07 02:36:00;;;;;;;45.95;43.25;;;;;;;;;;5055756;28;20541;-92
2023/08/07 02:38:26;;;;;;;46.35;43.90;;;;;;;;;;5055513;28;20117;-92
2023/08/07 02:40:53;;;;;;;48.88;46.15;;;;;;;;;;5059005;28;20025;-92
2023/08/07 02:43:19;;;;;;;45.97;43.53;;;;;;;;;;5075343;28;20538;-91
2023/08/07 02:45:45;;;;;;;54.42;51.28;;;;;;;;;;5075643;28;20082;-92
2023/08/07 02:48:11;;;;;;;50.15;47.47;;;;;;;;;;5075299;28;20053;-91
2023/08/07 02:50:37;;;;;;;49.95;47.35;;;;;;;;;;5075493;28;20036;-91
2023/08/07 02:53:03;;;;;;;59.65;55.97;;;;;;;;;;5075383;28;20021;-91
2023/08/07 02:55:29;;;;;;;46.80;44.30;;;;;;;;;;5075105;28;20475;-92
2023/08/07 02:57:55;;;;;;;51.30;48.60;;;;;;;;;;5075251;28;20090;-91
2023/08/07 03:00:22;;;;;;;57.03;53.78;;;;;;;;;;5075365;28;20032;-92
2023/08/07 03:02:51;;;;;;;55.97;53.03;;;;;;;;;;5075224;28;20032;-92
2023/08/07 03:05:17;;;;;;;52.58;49.53;;;;;;;;;;5075580;28;20036;-92
2023/08/07 03:07:46;;;;;;;42.67;40.22;;;;;;;;;;5075285;28;20040;-93
2023/08/07 03:10:12;;;;;;;55.17;52.25;;;;;;;;;;5075206;28;20023;-92
2023/08/07 03:12:38;;;;;;;55.17;52.13;;;;;;;;;;5075182;28;20062;-92
2023/08/07 03:15:06;;;;;;;57.15;53.95;;;;;;;;;;5074750;28;20097;-91
2023/08/07 03:17:32;;;;;;;59.92;56.58;;;;;;;;;;5074785;28;20068;-92
2023/08/07 03:19:58;;;;;;;57.55;54.47;;;;;;;;;;5074635;28;20473;-92
2023/08/07 03:22:24;;;;;;;46.28;43.72;;;;;;;;;;5074565;28;20043;-90
2023/08/07 03:24:50;;;;;;;70.53;66.43;;;;;;;;;;5074813;28;20028;-93
2023/08/07 03:27:17;;;;;;;47.38;44.88;;;;;;;;;;5075067;28;20043;-91
2023/08/07 03:29:43;;;;;;;47.80;45.30;;;;;;;;;;5074507;28;20032;-91
2023/08/07 03:32:09;;;;;;;55.65;52.20;;;;;;;;;;5084685;28;20029;-91
2023/08/07 03:34:35;;;;;;;51.22;47.97;;;;;;;;;;5089049;28;20040;-92
2023/08/07 03:37:01;;;;;;;60.60;57.25;;;;;;;;;;5077258;28;20063;-91
2023/08/07 03:39:28;;;;;;;64.35;60.83;;;;;;;;;;5066616;28;20485;-92
2023/08/07 03:41:57;;;;;;;54.75;51.33;;;;;;;;;;5054269;28;20074;-91
2023/08/07 03:44:23;;;;;;;53.35;50.35;;;;;;;;;;5054739;28;20025;-92
2023/08/07 03:46:50;;;;;;;47.85;45.17;;;;;;;;;;5053825;28;20048;-93
2023/08/07 03:49:17;;;;;;;56.85;53.58;;;;;;;;;;5054315;28;20492;-92
2023/08/07 03:51:43;;;;;;;47.00;44.38;;;;;;;;;;5054183;28;20035;-91
2023/08/07 03:54:09;;;;;;;80.72;74.75;;;;;;;;;;5053872;28;20481;-91
2023/08/07 03:56:38;;;;;;;50.13;46.97;;;;;;;;;;5054315;28;20124;-91
2023/08/07 03:59:04;;;;;;;126.53;118.43;;;;;;;;;;5054022;28;20028;-92
2023/08/07 04:01:30;;;;;;;58.13;54.90;;;;;;;;;;5053835;28;20504;-90
2023/08/07 04:03:56;;;;;;;59.53;56.35;;;;;;;;;;5053792;28;20067;-91
2023/08/07 04:06:22;;;;;;;50.85;48.05;;;;;;;;;;5053847;28;20036;-90
2023/08/07 04:08:49;;;;;;;47.65;45.03;;;;;;;;;;5054086;28;20025;-91
2023/08/07 04:11:15;;;;;;;69.20;65.05;;;;;;;;;;5053589;28;20485;-91
2023/08/07 04:13:41;;;;;;;55.63;52.63;;;;;;;;;;5053899;28;20013;-91
2023/08/07 04:16:07;;;;;;;115.75;104.40;;;;;;;;;;5053637;28;20036;-91
2023/08/07 04:18:34;;;;;;;54.17;51.22;;;;;;;;;;5054051;28;20485;-90
2023/08/07 04:21:00;;;;;;;57.63;54.30;;;;;;;;;;5053694;28;20032;-91
2023/08/07 04:23:26;;;;;;;61.92;58.53;;;;;;;;;;5053603;28;20029;-90
2023/08/07 04:25:53;;;;;;;77.53;73.35;;;;;;;;;;5067276;28;20550;-90
2023/08/07 04:28:19;;;;;;;72.32;68.38;;;;;;;;;;5072700;28;20032;-91
2023/08/07 04:30:50;;;;;;;83.55;79.00;;;;;;;;;;5076834;28;20035;-91
2023/08/07 04:33:16;;;;;;;72.60;68.43;;;;;;;;;;5074072;28;20028;-92
2023/08/07 04:35:42;;;;;;;85.85;81.32;;;;;;;;;;5064888;28;20847;-91
2023/08/07 04:38:08;;;;;;;101.07;95.57;;;;;;;;;;5073928;28;20044;-91
2023/08/07 04:40:35;;;;;;;84.25;79.85;;;;;;;;;;5074333;28;20048;-91
2023/08/07 04:43:01;;;;;;;101.60;96.03;;;;;;;;;;5070755;28;20036;-92
2023/08/07 04:45:28;;;;;;;98.20;92.88;;;;;;;;;;5053108;28;20037;-92
2023/08/07 04:47:56;;;;;;;129.55;122.93;;;;;;;;;;5038048;28;20068;-90
2023/08/07 04:50:22;;;;;;;144.25;136.63;;;;;;;;;;5053243;28;20115;-91
2023/08/07 04:52:48;;;;;;;148.38;140.73;;;;;;;;;;5053590;28;20059;-91
2023/08/07 04:55:14;;;;;;;164.23;155.38;;;;;;;;;;5053215;28;20078;-91
2023/08/07 04:57:41;;;;;;;148.20;140.68;;;;;;;;;;5053961;28;20048;-90
2023/08/07 05:00:07;;;;;;;149.40;141.45;;;;;;;;;;5054423;28;20032;-92
2023/08/07 05:02:34;;;;;;;163.95;155.18;;;;;;;;;;5054022;28;20048;-90
2023/08/07 05:05:00;;;;;;;143.00;135.40;;;;;;;;;;5053277;28;20112;-92
2023/08/07 05:07:26;;;;;;;160.55;152.20;;;;;;;;;;5053191;28;20473;-89
2023/08/07 05:09:52;;;;;;;165.18;156.60;;;;;;;;;;5053117;28;20021;-91
2023/08/07 05:12:18;;;;;;;175.98;165.82;;;;;;;;;;5055830;28;20118;-91
2023/08/07 05:14:45;;;;;;;170.70;161.27;;;;;;;;;;5073326;28;20449;-90
2023/08/07 05:17:12;;;;;;;144.15;136.70;;;;;;;;;;5072557;28;20047;-91
2023/08/07 05:19:38;;;;;;;201.77;191.20;;;;;;;;;;5053713;28;20484;-91
2023/08/07 05:22:05;;;;;;;163.82;155.18;;;;;;;;;;5053229;28;20031;-89
2023/08/07 05:24:38;;;;;;;151.23;143.40;;;;;;;;;;5053894;28;20116;-89
2023/08/07 05:27:04;;;;;;;;;;;;;;;;;;5093062;28;20051;-89
2023/08/07 05:29:30;;;;;;;119.97;113.15;;;;;;;;;;5073863;28;19913;-91
2023/08/07 05:31:56;;;;;;;138.40;131.18;;;;;;;;;;5054787;28;20082;-90
2023/08/07 05:34:22;;;;;;;142.02;134.30;;;;;;;;;;5052890;28;20036;-91
2023/08/07 05:37:04;;;;;;;152.32;144.18;;;;;;;;;;5052960;28;20032;-90
2023/08/07 05:39:30;;;;;;;150.55;142.48;;;;;;;;;;5055072;28;20033;-90
2023/08/07 05:41:59;;;;;;;148.60;140.80;;;;;;;;;;5057373;28;20028;-92
2023/08/07 05:44:25;;;;;;;162.02;153.68;;;;;;;;;;5056816;28;20037;-90
2023/08/07 05:46:52;;;;;;;137.40;130.10;;;;;;;;;;5058699;28;20049;-91
2023/08/07 05:49:18;;;;;;;160.07;151.60;;;;;;;;;;5056704;28;20105;-89
2023/08/07 05:51:44;;;;;;;187.32;177.38;;;;;;;;;;5056582;28;20028;-88
2023/08/07 05:54:10;;;;;;;200.93;189.90;;;;;;;;;;5056304;28;20029;-92
2023/08/07 05:56:38;;;;;;;200.82;190.18;;;;;;;;;;5063908;28;20035;-92
2023/08/07 05:59:04;;;;;;;240.65;226.63;;;;;;;;;;5076378;28;20075;-90
2023/08/07 06:01:37;;;;;;;211.45;200.18;;;;;;;;;;5076261;28;20032;-92
2023/08/07 06:04:09;;;;;;;201.88;191.27;;;;;;;;;;5066472;28;20116;-93
2023/08/07 06:06:36;;;;;;;235.07;222.47;;;;;;;;;;5056252;28;20133;-92
2023/08/07 06:09:06;;;;;;;241.82;227.82;;;;;;;;;;5056702;28;20263;-93
2023/08/07 06:11:35;;;;;;;252.02;238.38;;;;;;;;;;5056704;28;20543;-92
2023/08/07 06:14:04;;;;;;;253.77;240.25;;;;;;;;;;5073093;28;20024;-93
2023/08/07 06:16:31;;;;;;;301.42;283.88;;;;;;;;;;5071276;28;20403;-91
2023/08/07 06:18:57;;;;;;;225.60;213.07;;;;;;;;;;5056161;28;20078;-91
2023/08/07 06:21:23;;;;;;;274.95;259.92;;;;;;;;;;5055913;28;20111;-91
2023/08/07 06:23:49;;;;;;;289.08;271.88;;;;;;;;;;5056092;28;20041;-90
2023/08/07 06:26:15;;;;;;;233.07;220.48;;;;;;;;;;5056390;28;20032;-93
2023/08/07 06:28:47;;;;;;;213.48;201.90;;;;;;;;;;5076694;28;20025;-94
2023/08/07 06:31:32;;;;;;;196.82;186.35;;;;;;;;;;5075774;28;20029;-92
2023/08/07 06:34:01;;;;;;;161.75;153.25;;;;;;;;;;5076341;28;20036;-91
2023/08/07 06:36:28;;;;;;;151.93;144.00;;;;;;;;;;5090636;28;20013;-92
2023/08/07 06:38:54;;;;;;;156.07;147.13;;;;;;;;;;5087699;28;20116;-91
2023/08/07 06:41:21;;;;;;;150.82;142.77;;;;;;;;;;5089989;28;20056;-91
2023/08/07 06:43:53;;;;;;;184.48;174.43;;;;;;;;;;5079333;28;20020;-92
2023/08/07 06:46:24;;;;;;;209.85;198.80;;;;;;;;;;5075554;28;20056;-91
2023/08/07 06:48:50;;;;;;;220.02;207.23;;;;;;;;;;5075326;28;20384;-92
2023/08/07 06:51:16;;;;;;;176.50;167.20;;;;;;;;;;5076106;28;20392;-92
2023/08/07 06:53:43;;;;;;;182.00;172.40;;;;;;;;;;5069747;28;20034;-92
2023/08/07 06:56:10;;;;;;;193.70;183.55;;;;;;;;;;5059848;28;20024;-91
2023/08/07 06:58:39;;;;;;;186.23;175.98;;;;;;;;;;5076123;28;20393;-95
2023/08/07 07:01:08;;;;;;;164.55;155.77;;;;;;;;;;5076474;28;20082;-95
2023/08/07 07:03:35;;;;;;;226.82;213.52;;;;;;;;;;5078023;28;20025;-95
2023/08/07 07:06:26;;;;;;;202.30;191.77;;;;;;;;;;5253953;22;20053;-95
2023/08/07 07:08:55;;;;;;;272.27;256.92;;;;;;;;;;5001622;28;20034;-89
2023/08/07 07:11:35;;;;;;;193.77;183.57;;;;;;;;;;4977427;28;20031;-96
2023/08/07 07:17:09;;;;;;;;;;;;;;;;;;;;;
2023/08/07 07:19:45;;;;;;;217.00;205.20;;;;;;;;;;5038282;28;20517;-90
2023/08/07 07:22:11;;;;;;;223.50;211.48;;;;;;;;;;5025018;28;20080;-90
2023/08/07 07:35:01;;;;;;;256.83;242.88;;;;;;;;;;6144534;22;20074;-89
2023/08/07 07:37:27;;;;;;;234.02;221.52;;;;;;;;;;5367356;23;20073;-90
2023/08/07 07:39:53;;;;;;;234.43;221.48;;;;;;;;;;5014784;28;20076;-89
2023/08/07 07:42:19;;;;;;;198.82;188.60;;;;;;;;;;5015671;28;20578;-89
2023/08/07 07:44:45;;;;;;;191.95;181.73;;;;;;;;;;5014531;28;20033;-89
2023/08/07 07:47:11;;;;;;;190.70;180.57;;;;;;;;;;5015021;28;20092;-90
2023/08/07 07:49:37;;;;;;;163.82;154.70;;;;;;;;;;5014424;28;20026;-89
2023/08/07 07:52:03;;;;;;;128.07;121.28;;;;;;;;;;5014585;28;20034;-88
2023/08/07 07:54:29;;;;;;;119.57;113.43;;;;;;;;;;5014807;28;20022;-87
2023/08/07 07:56:56;;;;;;;96.32;91.22;;;;;;;;;;5014598;28;20025;-88
2023/08/07 07:59:22;;;;;;;96.93;91.75;;;;;;;;;;5014295;28;20116;-87
2023/08/07 08:01:48;;;;;;;88.47;83.88;;;;;;;;;;5013425;28;20478;-87
2023/08/07 08:04:14;;;;;;;87.70;83.13;;;;;;;;;;5013917;28;20065;-86
2023/08/07 08:06:43;;;;;;;95.18;90.18;;;;;;;;;;5014021;28;20402;-87
2023/08/07 08:09:09;;;;;;;69.60;65.72;;;;;;;;;;5014188;28;20089;-87
2023/08/07 08:11:35;;;;;;;89.45;84.63;;;;;;;;;;5014294;28;20536;-87
2023/08/07 08:14:01;;;;;;;80.65;76.43;;;;;;;;;;5014867;28;20399;-88
2023/08/07 08:16:28;;;;;;;76.82;72.82;;;;;;;;;;5013975;28;20026;-89
2023/08/07 08:18:54;;;;;;;72.88;69.10;;;;;;;;;;5014063;28;20116;-90
2023/08/07 08:21:23;;;;;;;79.90;75.65;;;;;;;;;;5014496;28;20109;-90
2023/08/07 08:23:50;;;;;;;76.15;72.18;;;;;;;;;;5015209;28;20026;-89
2023/08/07 08:26:18;;;;;;;76.75;72.57;;;;;;;;;;5013731;28;20065;-88
2023/08/07 08:28:44;;;;;;;95.00;90.07;;;;;;;;;;5013727;28;20033;-89
2023/08/07 08:31:10;;;;;;;101.90;96.60;;;;;;;;;;5013759;28;20018;-92
2023/08/07 08:33:44;;;;;;;112.25;106.43;;;;;;;;;;5013547;28;20029;-90
2023/08/07 08:36:11;;;;;;;93.90;89.03;;;;;;;;;;5012904;28;20041;-91
2023/08/07 08:38:38;;;;;;;125.97;118.47;;;;;;;;;;5013403;28;20491;-90
2023/08/07 08:41:09;;;;;;;102.20;96.90;;;;;;;;;;5013665;28;20022;-91
2023/08/07 08:43:36;;;;;;;84.00;79.57;;;;;;;;;;5013828;28;20390;-91
2023/08/07 08:46:05;;;;;;;89.03;84.40;;;;;;;;;;5013486;28;20030;-91
2023/08/07 08:48:33;;;;;;;77.53;73.43;;;;;;;;;;5013602;28;20034;-91
2023/08/07 08:51:11;;;;;;;72.03;67.90;;;;;;;;;;5013691;28;20427;-91
2023/08/07 08:53:37;;;;;;;63.38;59.92;;;;;;;;;;5014376;28;20172;-89
2023/08/07 08:56:03;;;;;;;75.70;71.57;;;;;;;;;;5013103;28;20109;-90
2023/08/07 08:58:30;;;;;;;78.60;74.47;;;;;;;;;;5013177;28;20037;-91
2023/08/07 09:00:56;;;;;;;82.70;78.35;;;;;;;;;;5013365;28;20026;-90
2023/08/07 09:03:35;;;;;;;;;;;;;;;;;;;;;
2023/08/07 09:06:06;;;;;;;77.28;73.10;;;;;;;;;;5014769;28;20038;-90
2023/08/07 09:08:33;;;;;;;85.68;81.20;;;;;;;;;;5013824;28;20026;-88
2023/08/07 09:10:59;;;;;;;108.90;103.30;;;;;;;;;;5013644;28;20037;-89
2023/08/07 09:13:44;;;;;;;80.90;76.45;;;;;;;;;;5013923;28;20026;-90
2023/08/07 09:16:12;;;;;;;82.43;78.13;;;;;;;;;;5018537;28;20053;-90
2023/08/07 09:18:46;;;;;;;86.43;81.88;;;;;;;;;;5022148;28;20040;-89
2023/08/07 09:21:13;;;;;;;91.60;86.72;;;;;;;;;;5023660;28;20030;-89
2023/08/07 09:23:42;;;;;;;79.15;75.05;;;;;;;;;;5021262;28;20026;-89
2023/08/07 09:26:08;;;;;;;77.28;73.15;;;;;;;;;;5014595;28;20526;-89
2023/08/07 09:28:38;;;;;;;76.00;71.97;;;;;;;;;;5017424;28;20040;-90
2023/08/07 09:31:06;;;;;;;80.20;75.78;;;;;;;;;;5017055;28;20032;-89
2023/08/07 09:33:32;;;;;;;64.43;61.00;;;;;;;;;;5017478;28;20028;-89
2023/08/07 09:36:02;;;;;;;70.22;66.45;;;;;;;;;;5017654;28;20022;-87
2023/08/07 09:38:29;;;;;;;63.15;59.75;;;;;;;;;;5004714;28;20518;-89
2023/08/07 09:41:05;;;;;;;67.00;63.30;;;;;;;;;;5019681;28;20026;-91
2023/08/07 09:43:37;;;;;;;60.50;57.33;;;;;;;;;;5015017;28;20031;-88
2023/08/07 09:46:04;;;;;;;60.53;57.03;;;;;;;;;;5002497;28;20034;-90
2023/08/07 09:48:33;;;;;;;64.32;60.92;;;;;;;;;;4998412;28;20502;-90
2023/08/07 09:51:01;;;;;;;60.97;57.70;;;;;;;;;;4997015;28;20041;-88
2023/08/07 09:53:28;;;;;;;45.58;43.13;;;;;;;;;;4997515;28;20022;-90
2023/08/07 09:55:55;;;;;;;58.25;55.05;;;;;;;;;;4996938;28;20065;-91
2023/08/07 09:58:21;;;;;;;53.65;50.80;;;;;;;;;;4996829;28;20062;-90
2023/08/07 10:00:48;;;;;;;53.25;50.35;;;;;;;;;;4996730;28;20033;-88
2023/08/07 10:03:14;;;;;;;89.20;83.22;;;;;;;;;;4998056;28;20037;-90
2023/08/07 10:05:45;;;;;;;59.28;56.15;;;;;;;;;;4997144;28;20034;-93
2023/08/07 10:08:14;;;;;;;53.60;50.75;;;;;;;;;;4995731;28;20125;-93
2023/08/07 10:10:43;;;;;;;50.17;47.40;;;;;;;;;;4997629;28;20154;-93
2023/08/07 10:13:18;;;;;;;64.70;61.22;;;;;;;;;;4997798;28;20062;-96
2023/08/07 10:15:44;;;;;;;46.15;43.67;;;;;;;;;;4996759;28;20035;-92
2023/08/07 10:18:10;;;;;;;77.70;73.57;;;;;;;;;;4996527;28;20027;-89
2023/08/07 10:20:37;;;;;;;75.47;71.50;;;;;;;;;;4996527;28;20035;-91
2023/08/07 10:23:10;;;;;;;71.70;67.82;;;;;;;;;;4996365;28;20027;-89
2023/08/07 10:25:37;;;;;;;75.03;71.10;;;;;;;;;;4995292;28;20034;-89
2023/08/07 10:28:06;;;;;;;62.97;59.65;;;;;;;;;;4997387;28;20438;-89
2023/08/07 10:30:33;;;;;;;76.70;72.72;;;;;;;;;;4996419;28;20502;-90
2023/08/07 10:32:59;;;;;;;74.25;70.22;;;;;;;;;;4996192;28;20547;-90
2023/08/07 10:35:26;;;;;;;85.07;80.38;;;;;;;;;;4996187;28;20472;-89
2023/08/07 10:37:54;;;;;;;72.03;68.22;;;;;;;;;;5003623;28;20204;-90
2023/08/07 10:40:23;;;;;;;79.60;75.45;;;;;;;;;;5015948;28;20049;-89
2023/08/07 10:42:55;;;;;;;89.47;84.53;;;;;;;;;;5016009;28;20133;-90
2023/08/07 10:45:22;;;;;;;83.82;79.38;;;;;;;;;;5015727;28;20022;-89
2023/08/07 10:48:07;;;;;;;75.60;71.43;;;;;;;;;;5015935;28;20379;-90
2023/08/07 10:50:34;;;;;;;78.45;74.35;;;;;;;;;;5016401;28;20533;-90
2023/08/07 10:53:01;;;;;;;66.40;62.95;;;;;;;;;;5015704;28;20107;-90
2023/08/07 10:55:28;;;;;;;66.32;62.85;;;;;;;;;;5015383;28;20022;-91
2023/08/07 10:58:00;;;;;;;66.15;62.70;;;;;;;;;;5016668;28;20032;-94
2023/08/07 11:00:29;;;;;;;56.83;53.80;;;;;;;;;;5015535;28;20034;-88
2023/08/07 11:02:58;;;;;;;70.00;66.28;;;;;;;;;;5015646;28;20474;-92
2023/08/07 11:08:51;;;;;;;49.35;46.67;;;;;;;;;;5017975;28;20029;-93
2023/08/07 11:11:29;;;;;;;64.88;61.47;;;;;;;;;;4994155;28;20038;-93
2023/08/07 11:13:55;;;;;;;59.47;56.30;;;;;;;;;;5015819;28;20085;-91
2023/08/07 11:16:22;;;;;;;65.35;61.92;;;;;;;;;;5016343;28;20037;-89
2023/08/07 11:18:48;;;;;;;74.63;70.43;;;;;;;;;;5023895;28;20061;-89
2023/08/07 11:21:14;;;;;;;65.15;61.70;;;;;;;;;;5015541;28;20054;-88
2023/08/07 11:23:41;;;;;;;54.33;51.42;;;;;;;;;;5015144;28;20120;-90
2023/08/07 11:26:10;;;;;;;69.05;65.35;;;;;;;;;;5014882;28;20034;-89
2023/08/07 11:28:36;;;;;;;52.97;50.15;;;;;;;;;;5015156;28;20034;-89
2023/08/07 11:31:02;;;;;;;59.97;56.65;;;;;;;;;;5014798;28;20091;-90
2023/08/07 11:33:29;;;;;;;65.72;62.25;;;;;;;;;;5015055;28;20072;-90
2023/08/07 11:35:55;;;;;;;58.47;55.35;;;;;;;;;;5015095;28;20601;-90
2023/08/07 11:38:34;;;;;;;62.45;59.10;;;;;;;;;;5003186;28;20069;-90
2023/08/07 11:41:01;;;;;;;49.72;47.08;;;;;;;;;;4995442;28;20034;-90
2023/08/07 11:43:29;;;;;;;61.95;58.70;;;;;;;;;;4995231;28;20026;-88
2023/08/07 11:45:56;;;;;;;58.28;55.15;;;;;;;;;;4995365;28;20129;-91
2023/08/07 11:48:24;;;;;;;60.55;57.17;;;;;;;;;;4995206;28;20019;-91
2023/08/07 11:50:50;;;;;;;92.95;87.82;;;;;;;;;;4995109;28;20030;-91
2023/08/07 11:53:17;;;;;;;78.93;74.00;;;;;;;;;;4995387;28;20027;-90
2023/08/07 11:55:59;;;;;;;66.65;63.13;;;;;;;;;;4994959;28;20030;-90
2023/08/07 12:02:04;;;;;;;63.60;60.13;;;;;;;;;;5035768;28;20051;-94
2023/08/07 12:04:34;;;;;;;66.35;62.83;;;;;;;;;;5018196;28;20482;-93
2023/08/07 12:15:09;;;;;;;105.88;100.45;;;;;;;;;;5635848;23;20061;-96
2023/08/07 12:17:39;;;;;;;89.57;84.75;;;;;;;;;;5035994;28;20168;-95
2023/08/07 12:20:12;;;;;;;120.97;114.78;;;;;;;;;;5034202;28;20128;-91
2023/08/07 12:22:38;;;;;;;123.22;116.90;;;;;;;;;;5018984;28;20091;-92
2023/08/07 12:25:07;;;;;;;120.93;114.65;;;;;;;;;;5033752;28;20032;-93
2023/08/07 12:27:36;;;;;;;136.63;129.57;;;;;;;;;;5029146;28;20065;-92
2023/08/07 12:30:03;;;;;;;144.25;136.80;;;;;;;;;;5033796;28;20531;-93
2023/08/07 12:32:32;;;;;;;129.38;122.75;;;;;;;;;;5033573;28;20390;-93
2023/08/07 12:35:05;;;;;;;143.57;136.23;;;;;;;;;;5033795;28;20030;-91
2023/08/07 12:37:31;;;;;;;125.45;118.97;;;;;;;;;;5036607;28;20037;-94
2023/08/07 12:39:58;;;;;;;128.32;121.70;;;;;;;;;;5033949;28;20018;-93
2023/08/07 12:42:24;;;;;;;117.47;111.38;;;;;;;;;;5033992;28;20530;-93
2023/08/07 12:44:50;;;;;;;111.38;105.50;;;;;;;;;;5056439;28;20024;-92
2023/08/07 12:47:16;;;;;;;118.85;112.72;;;;;;;;;;5055598;28;20045;-93
2023/08/07 12:49:42;;;;;;;95.93;90.78;;;;;;;;;;5053209;28;20025;-91
2023/08/07 12:52:08;;;;;;;102.43;97.15;;;;;;;;;;5039489;28;20032;-91
2023/08/07 12:54:34;;;;;;;100.45;95.13;;;;;;;;;;5034148;28;20029;-93
2023/08/07 12:59:36;;;;;;;101.88;96.47;;;;;;;;;;5840056;22;20277;-94
2023/08/07 13:13:22;;;;;;;83.70;79.35;;;;;;;;;;5704325;23;20057;-95
2023/08/07 13:15:53;;;;;;;84.88;80.50;;;;;;;;;;4932380;28;20073;-94
2023/08/07 13:18:22;;;;;;;82.65;78.30;;;;;;;;;;4993877;28;20121;-92
2023/08/07 13:20:48;;;;;;;89.63;84.82;;;;;;;;;;4993973;28;20026;-94
2023/08/07 13:23:17;;;;;;;98.07;92.90;;;;;;;;;;4993735;28;20029;-93
2023/08/07 13:25:44;;;;;;;99.03;93.93;;;;;;;;;;4993983;28;20039;-91
2023/08/07 13:28:10;;;;;;;95.88;90.93;;;;;;;;;;4993775;28;20033;-91
2023/08/07 13:30:36;;;;;;;107.22;101.75;;;;;;;;;;4994520;28;20025;-93
2023/08/07 13:33:04;;;;;;;118.53;112.47;;;;;;;;;;4994340;28;20037;-91
2023/08/07 13:35:37;;;;;;;114.35;108.32;;;;;;;;;;5013512;28;20030;-93
2023/08/07 13:38:05;;;;;;;113.38;107.47;;;;;;;;;;5013244;28;20038;-91
2023/08/07 13:40:31;;;;;;;112.70;106.82;;;;;;;;;;5013758;28;20096;-91
2023/08/07 13:43:01;;;;;;;140.55;133.32;;;;;;;;;;5013531;28;20026;-93
2023/08/07 13:45:28;;;;;;;116.78;110.78;;;;;;;;;;5014002;28;20109;-92
2023/08/07 13:47:54;;;;;;;112.88;106.97;;;;;;;;;;5013921;28;20049;-92
2023/08/07 13:50:26;;;;;;;117.72;111.72;;;;;;;;;;5013302;28;20037;-92
2023/08/07 13:52:55;;;;;;;117.88;111.90;;;;;;;;;;5013664;28;20030;-91
2023/08/07 13:55:21;;;;;;;138.75;131.55;;;;;;;;;;5013372;28;20079;-92
2023/08/07 13:57:57;;;;;;;138.98;131.50;;;;;;;;;;5013114;28;20033;-92
2023/08/07 14:00:24;;;;;;;123.70;117.18;;;;;;;;;;5014866;28;20030;-89
2023/08/07 14:02:53;;;;;;;156.57;148.57;;;;;;;;;;5016723;28;20049;-92
2023/08/07 14:05:19;;;;;;;119.70;113.50;;;;;;;;;;5016481;28;20029;-92
2023/08/07 14:07:45;;;;;;;146.18;138.80;;;;;;;;;;5016252;28;20053;-91
2023/08/07 14:10:11;;;;;;;132.35;125.57;;;;;;;;;;5016315;28;20022;-91
2023/08/07 14:12:37;;;;;;;149.70;141.73;;;;;;;;;;5016022;28;20579;-91
2023/08/07 14:15:04;;;;;;;145.50;137.98;;;;;;;;;;5016357;28;20101;-90
2023/08/07 14:17:30;;;;;;;157.48;149.50;;;;;;;;;;5016629;28;20500;-95
2023/08/07 14:19:56;;;;;;;146.50;139.02;;;;;;;;;;5016668;28;20072;-93
2023/08/07 14:22:25;;;;;;;153.65;145.90;;;;;;;;;;5016263;28;20442;-93
2023/08/07 14:24:55;;;;;;;153.73;145.82;;;;;;;;;;5016365;28;20030;-92
2023/08/07 14:27:21;;;;;;;165.25;156.90;;;;;;;;;;5016033;28;20034;-91
2023/08/07 14:29:53;;;;;;;149.38;141.82;;;;;;;;;;5015783;28;20033;-93
2023/08/07 14:32:25;;;;;;;157.95;149.93;;;;;;;;;;5016144;28;20034;-91
2023/08/07 14:34:55;;;;;;;164.13;155.65;;;;;;;;;;5017243;28;20072;-93
2023/08/07 14:37:24;;;;;;;169.98;161.23;;;;;;;;;;5016554;28;20034;-92
2023/08/07 14:39:52;;;;;;;200.60;188.50;;;;;;;;;;5016081;28;20159;-92
2023/08/07 14:42:19;;;;;;;175.60;166.60;;;;;;;;;;5016549;28;20088;-94
2023/08/07 14:45:04;;;;;;;183.93;174.52;;;;;;;;;;5015912;28;20112;-91
2023/08/07 14:47:33;;;;;;;186.40;176.88;;;;;;;;;;5015817;28;20042;-93
2023/08/07 14:49:59;;;;;;;175.88;166.75;;;;;;;;;;5015772;28;20030;-93
2023/08/07 14:52:28;;;;;;;180.50;171.18;;;;;;;;;;5016187;28;20048;-93
2023/08/07 14:55:01;;;;;;;177.00;167.90;;;;;;;;;;5015962;28;20479;-93
2023/08/07 14:57:33;;;;;;;165.25;156.90;;;;;;;;;;5015815;28;20026;-93